Tiempo atmosférico en la estación meteorológica de Albarracín, Teruel (1130 m.)



Fecha
DESCASC
Temp. máxima en grados centígrados (hora)
DESCASC
Temp. mínima en grados centígrados (hora)
DESCASC
Temp. media en grados centígrados
DESCASC
Racha de viento máxima en m/sg (hora)
DESCASC
Velocidad máxima media en intervalos de 10 minutos(hora)
DESCASC
Precipitaciones diarias en mm
DESCASC
Precipitaciones de 00:00 a 06:00 en mm
DESCASC
Precipitaciones de 06:00 a 12:00 en mm
DESCASC
Precipitaciones de 12:00 a 18:00 en mm
DESCASC
Precipitaciones de 18:00 a 24:00 en mm
DESCASC
17-09-2020 24.3 (14:00) 16.1 (04:20) 20.2 12.78 (14:30) 7.78 (14:20) 0.8 0 0 0 0.8
15-09-2020 27 (14:50) 13.5 (07:20) 20.3 10.56 (15:50) 5.56 (15:50) 2 1.6 0.2 0.2 0
14-09-2020 28.1 (16:50) 10.7 (07:40) 19.4 11.11 (12:50) 6.67 (12:50) 0 0 0 0 0
13-09-2020 29.3 (17:00) 12 (00:00) 20.6 9.17 (21:10) 6.11 (21:10) 0 0 0 0 0
12-09-2020 29.6 (16:50) 10.3 (07:40) 20 10 (14:30) 4.17 (15:20) 0 0 0 0 0
11-09-2020 28 (15:20) 9.3 (00:00) 18.7 8.06 (07:40) 4.44 (07:40) 0 0 0 0 0
10-09-2020 24.9 (15:20) 9.2 (00:00) 17 7.78 (15:20) 5 (18:40) 0 0 0 0 0
09-09-2020 22.3 (17:30) 8.3 (08:20) 15.3 6.94 (17:20) 3.33 (13:00) 0 0 0 0 0
08-09-2020 23.3 (17:30) 4 (00:00) 13.6 6.67 (18:50) 3.33 (16:30) 0 0 0 0 0
07-09-2020 20.2 (16:30) 8.6 (07:50) 14.4 11.11 (13:20) 6.39 (13:20) 0 0 0 0 0
06-09-2020 27.3 (17:10) 11.3 (00:00) 19.3 7.78 (14:50) 4.72 (21:10) 0 0 0 0 0
05-09-2020 30 (17:20) 11.2 (00:00) 20.6 6.94 (19:50) 3.61 (19:50) 0 0 0 0 0
04-09-2020 29.9 (17:10) 11.5 (00:00) 20.7 8.33 (18:00) 4.17 (17:40) 0 0 0 0 0
03-09-2020 28.6 (17:50) 10.7 (00:00) 19.7 6.67 (19:50) 4.17 (20:00) 0 0 0 0 0
02-09-2020 25 (16:50) 7 (00:00) 16 6.67 (15:50) 3.33 (13:50) 0 0 0 0 0
01-09-2020 24.5 (16:10) 9.3 (00:00) 16.9 7.5 (17:20) 4.17 (18:40) 0 0 0 0 0
31-08-2020 24.1 (17:50) 4.1 (00:00) 14.1 7.5 (14:40) 3.89 (14:40) 0 0 0 0 0
30-08-2020 19.2 (17:10) 5.9 (00:00) 12.6 9.44 (15:50) 5.56 (20:30) 0 0 0 0 0
29-08-2020 19.9 (15:50) 10.4 (00:00) 15.1 13.33 (20:00) 8.33 (20:00) 0 0 0 0 0
28-08-2020 30.4 (18:00) 14.7 (00:00) 22.5 8.33 (18:50) 4.72 (19:20) 0 0 0 0 0
27-08-2020 34.3 (16:40) 15.4 (00:00) 24.8 8.06 (15:40) 4.44 (09:30) 0 0 0 0 0
26-08-2020 35.6 (16:20) 16.1 (00:00) 25.8 10 (17:50) 4.17 (15:40) 0 0 0 0 0
25-08-2020 34.7 (17:10) 15.6 (00:00) 25.2 7.5 (13:50) 3.89 (09:00) 0 0 0 0 0
24-08-2020 29.5 (19:30) 15.7 (05:00) 22.6 9.72 (16:30) 6.11 (16:30) 0 0 0 0 0
23-08-2020 28.8 (17:10) 14.1 (00:00) 21.4 9.44 (15:50) 5 (15:50) 0 0 0 0 0
22-08-2020 32.4 (16:50) 13.8 (00:00) 23.1 10 (14:40) 5.56 (14:40) 0 0 0 0 0
21-08-2020 33.6 (16:20) 14.4 (07:30) 24 11.94 (14:50) 5 (16:30) 0 0 0 0 0

Gráficas

Temp. máximas Temp. mínimas Temp. medias Precipitaciones Rachas de viento máximas Velocidades máximas media en intervalos de 10 minutos

Datos horarios

Fecha y hora oficial Temperatura (ºC) Velocidad del viento (km/h) Dirección del viento Racha (km/h) Dirección de racha Precipitación (mm) Presión (hPa) Tendencia (hPa) Humedad (%)
2020-09-19 23:00:00 14.4 3 Sudoeste 13 Sur 0 -- -- 72
2020-09-19 22:00:00 15.2 6 Sudoeste 14 Sudoeste 0 -- -- 70
2020-09-19 21:00:00 16.2 9 Sudoeste 17 Oeste 0 -- -- 65
2020-09-19 20:00:00 17.5 9 Sudoeste 24 Oeste 0 -- -- 57
2020-09-19 19:00:00 18.5 9 Sudoeste 27 Oeste 0 -- -- 54
2020-09-19 18:00:00 18.6 13 Oeste 35 Sudoeste 0 -- -- 56
2020-09-19 17:00:00 20.6 15 Sur 35 Sur 0 -- -- 45
2020-09-19 16:00:00 18.8 22 Sudoeste 35 Sudoeste 0 -- -- 54
2020-09-19 15:00:00 19.1 15 Sudoeste 32 Sudoeste 0 -- -- 55
2020-09-19 14:00:00 19.1 18 Sur 35 Sur 0 -- -- 54
2020-09-19 13:00:00 18.4 14 Sudoeste 33 Sudoeste 0 -- -- 60
2020-09-19 12:00:00 17.6 12 Sudeste 26 Sur 0 -- -- 67
2020-09-19 11:00:00 15.3 9 Sudoeste 24 Sudoeste 0 -- -- 75
2020-09-19 10:00:00 14.6 12 Sur 28 Sur 0 -- -- 71
2020-09-19 09:00:00 14 10 Sur 22 Sudoeste 0 -- -- 76
2020-09-19 08:00:00 13.5 8 Sudeste 18 Sudeste 0 -- -- 82
2020-09-19 07:00:00 13.5 5 Sur 19 Sudoeste 0 -- -- 79
2020-09-19 06:00:00 13.6 5 Sur 27 Sudoeste 0 -- -- 82
2020-09-19 05:00:00 13.7 8 Sur 29 Sudeste 0 -- -- 84
2020-09-19 04:00:00 14.4 11 Sur 27 Sudeste 0 -- -- 85
2020-09-19 03:00:00 12.9 8 Sudeste 14 Sudeste 0 -- -- 94
2020-09-19 02:00:00 11.4 0 Calma 5 Norte 0 -- -- 95
2020-09-19 01:00:00 11.2 0 Calma 6 Noroeste 0 -- -- 94
2020-09-19 00:00:00 11.4 0 Calma 6 Sudoeste 0 -- -- 93
2020-09-18 23:00:00 12.3 6 Sudoeste 12 Sudoeste 0 -- -- 88
2020-09-18 22:00:00 12.4 7 Sur 18 Sur 0 -- -- 88
2020-09-18 21:00:00 12 9 Sur 30 Sudoeste 6 -- -- 89
2020-09-18 20:00:00 16.1 17 Sudeste 35 Sudeste 0.4 -- -- 85
2020-09-18 19:00:00 17.7 9 Sudeste 24 Sudeste 0 -- -- 76
2020-09-18 18:00:00 19.3 15 Sur 33 Sudeste 0.2 -- -- 67
2020-09-18 17:00:00 16.7 15 Sudeste 28 Sudeste 0.4 -- -- 84
2020-09-18 16:00:00 17.9 6 Sur 23 Sur 0.4 -- -- 81
2020-09-18 15:00:00 18.1 12 Sur 46 Sudoeste 0.2 -- -- 76
2020-09-18 14:00:00 18.6 21 Sudeste 38 Sudeste 0 -- -- 69
2020-09-18 13:00:00 19.6 15 Sur 41 Sur 0 -- -- 64
2020-09-18 12:00:00 18.1 21 Sur 39 Sur 0 -- -- 68
2020-09-18 11:00:00 16.3 19 Sur 38 Sur 0 -- -- 73
2020-09-18 10:00:00 15.5 13 Sur 30 Sudeste 0 -- -- 75
2020-09-18 09:00:00 15.1 12 Sur 29 Sudeste 0 -- -- 79
2020-09-18 08:00:00 16.2 16 Sudeste 37 Sudeste 0 -- -- 76
2020-09-18 07:00:00 16.3 9 Sudeste 15 Sudeste 0 -- -- 79
2020-09-18 06:00:00 16.4 6 Sur 26 Sudeste 0 -- -- 83
2020-09-18 05:00:00 16.6 8 Sur 18 Sudeste 0 -- -- 84
2020-09-18 04:00:00 16.7 6 Sur 17 Sudeste 0 -- -- 85
2020-09-18 03:00:00 16.3 6 Sur 15 Sudeste 0 -- -- 86
2020-09-18 02:00:00 16.2 0 Calma 20 Sudoeste 0 -- -- 86
2020-09-18 01:00:00 16.3 6 Sudoeste 28 Sudoeste 0.4 -- -- 85
2020-09-18 00:00:00 17.3 17 Sudoeste 38 Sur 0.8 -- -- 82
2020-09-17 23:00:00 19.5 13 Sudoeste 23 Sudoeste 0 -- -- 69
2020-09-17 22:00:00 19.5 3 Sudoeste 15 Sudeste 0 -- -- 64
2020-09-17 21:00:00 20 8 Sudeste 13 Sudeste 0 -- -- 56
2020-09-17 20:00:00 21.6 7 Sudeste 25 Sudeste 0 -- -- 52
2020-09-17 19:00:00 22.5 13 Sur 28 Sudeste 0 -- -- 50
2020-09-17 18:00:00 22.9 13 Sur 32 Sur 0 -- -- 50
2020-09-17 17:00:00 23 13 Sur 35 Sudeste 0 -- -- 49
2020-09-17 16:00:00 23.4 19 Sudeste 36 Sudeste 0 -- -- 46
2020-09-17 15:00:00 22.7 21 Sudeste 46 Sudeste 0 -- -- 46
2020-09-17 14:00:00 24.3 20 Sudeste 43 Sudeste 0 -- -- 42
2020-09-17 13:00:00 22.5 21 Sudeste 44 Sudeste 0 -- -- 43
2020-09-17 12:00:00 22.9 20 Sudeste 38 Sudeste 0 -- -- 38
2020-09-17 11:00:00 20.2 15 Sudeste 23 Sudeste 0 -- -- 56
2020-09-17 10:00:00 18.2 3 Norte 5 Norte 0 -- -- 58
2020-09-17 09:00:00 17.1 4 Noroeste 8 Oeste 0 -- -- 60
2020-09-17 08:00:00 16.8 6 Noroeste 11 Norte 0 -- -- 58
2020-09-17 07:00:00 16.7 3 Noroeste 6 Sudeste 0 -- -- 60
2020-09-17 06:00:00 17.5 0 Calma 21 Sudoeste 0 -- -- 57
2020-09-17 05:00:00 17.9 10 Sur 16 Sur 0 -- -- 54
2020-09-17 04:00:00 16.2 0 Calma 6 Sur 0 -- -- 63
2020-09-17 03:00:00 16.4 3 Noroeste 6 Sudeste 0 -- -- 61
2020-09-17 02:00:00 16.7 3 Sur 4 Sur 0 -- -- 60
2020-09-17 01:00:00 17.5 2 Este 12 Sudoeste 0 -- -- 58
2020-09-17 00:00:00 19 4 Sudoeste 12 Sudoeste 0 -- -- 56
2020-09-16 23:00:00 19.9 5 Sudoeste 10 Sudoeste 0 -- -- 52
2020-09-16 22:00:00 21 6 Norte 24 Sudeste 0 -- -- 50
2020-09-16 21:00:00 22.8 13 Sur 33 Sur 0 -- -- 46
2020-09-16 20:00:00 24.2 18 Sudeste 34 Sudeste 0 -- -- 42
2020-09-16 19:00:00 26.1 18 Sudeste 36 Sudeste 0 -- -- 36
2020-09-16 18:00:00 26.8 16 Sudeste 29 Sudeste 0 -- -- 36
2020-09-16 17:00:00 28.1 15 Sur 28 Sudeste 0 -- -- 32
2020-09-16 16:00:00 28 16 Sudeste 37 Sudeste 0 -- -- 32
2020-09-16 15:00:00 27.9 14 Sudeste 32 Sudeste 0 -- -- 34
2020-09-16 14:00:00 26.8 14 Sudeste 28 Sudeste 0 -- -- 37
2020-09-16 13:00:00 24.6 5 Noroeste 13 Norte 0 -- -- 43
2020-09-16 12:00:00 23.4 3 Este 8 Norte 0 -- -- 49
2020-09-16 11:00:00 20.2 5 Este 17 Este 0 -- -- 62
2020-09-16 10:00:00 16 11 Este 21 Este 0 -- -- 74
2020-09-16 09:00:00 12.7 2 Noroeste 9 Oeste 0 -- -- 85
2020-09-16 08:00:00 12.1 3 Sudeste 10 Sudeste 0 -- -- 85
2020-09-16 07:00:00 12.3 2 Sur 8 Sudeste 0 -- -- 85
2020-09-16 06:00:00 12.4 3 Oeste 8 Este 0 -- -- 84
2020-09-16 05:00:00 13.4 4 Este 11 Sudeste 0 -- -- 79
2020-09-16 04:00:00 14.2 4 Nordeste 17 Sudeste 0 -- -- 75
2020-09-16 03:00:00 14.8 2 Noroeste 11 Sur 0 -- -- 74
2020-09-16 02:00:00 15.9 3 Oeste 13 Sudoeste 0 -- -- 71
2020-09-16 01:00:00 16.5 0 Calma 21 Sur 0 -- -- 64
2020-09-16 00:00:00 16.9 3 Oeste 13 Sudoeste 0 -- -- 63
2020-09-15 23:00:00 18.2 0 Calma 10 Oeste 0 -- -- 56
2020-09-15 22:00:00 20.1 4 Oeste 9 Sudoeste 0 -- -- 51
2020-09-15 21:00:00 22.1 7 Sudoeste 13 Sudoeste 0 -- -- 44
2020-09-15 20:00:00 23.8 4 Sudoeste 20 Sur 0 -- -- 40
2020-09-15 19:00:00 25.7 11 Sudeste 27 Sudeste 0 -- -- 37
2020-09-15 18:00:00 26.4 15 Sudeste 30 Sudeste 0 -- -- 36
2020-09-15 17:00:00 26.3 15 Sudeste 33 Sudeste 0 -- -- 37
2020-09-15 16:00:00 25.3 17 Sur 38 Sudeste 0 -- -- 40
2020-09-15 15:00:00 27 17 Sudeste 33 Sur 0 -- -- 38
2020-09-15 14:00:00 26.3 11 Sur 22 Sudeste 0 -- -- 41
2020-09-15 13:00:00 24.8 13 Este 24 Sudeste 0.2 -- -- 51
2020-09-15 12:00:00 22.8 4 Este 14 Sudeste 0 -- -- 58
2020-09-15 11:00:00 19.4 12 Sur 21 Este 0 -- -- 68
2020-09-15 10:00:00 15.6 10 Sur 28 Sudoeste 0.2 -- -- 85
2020-09-15 09:00:00 15.8 9 Sudoeste 36 Sur 0 -- -- 79
2020-09-15 08:00:00 14.9 13 Sudoeste 24 Sur 0 -- -- 84
2020-09-15 07:00:00 13.6 12 Sudeste 21 Sudeste 0 -- -- 90
2020-09-15 06:00:00 14 8 Sur 16 Sur 0 -- -- 90
2020-09-15 05:00:00 14.1 5 Este 13 Sudoeste 0 -- -- 91
2020-09-15 04:00:00 14.7 6 Noroeste 12 Noroeste 0 -- -- 88
2020-09-15 03:00:00 15.1 3 Sur 24 Sudoeste 0 -- -- 88
2020-09-15 02:00:00 15.5 3 Noroeste 21 Noroeste 1 -- -- 87
2020-09-15 01:00:00 16.1 9 Sudoeste 24 Sudoeste 0.6 -- -- 82
2020-09-15 00:00:00 17.7 17 Sur 24 Sudoeste 0 -- -- 66
2020-09-14 23:00:00 20.4 13 Sur 26 Sur 0 -- -- 46
2020-09-14 22:00:00 20.9 11 Sur 23 Sudoeste 0 -- -- 46
2020-09-14 21:00:00 22.1 9 Sur 27 Sur 0 -- -- 42
2020-09-14 20:00:00 23.4 12 Sur 25 Sudeste 0 -- -- 37
2020-09-14 19:00:00 24.6 14 Sudeste 33 Sur 0 -- -- 35
2020-09-14 18:00:00 26.3 18 Sudeste 35 Sudeste 0 -- -- 32
2020-09-14 17:00:00 27.8 16 Sudeste 29 Este 0 -- -- 30
2020-09-14 16:00:00 27.9 14 Sudeste 33 Sudeste 0 -- -- 31
2020-09-14 15:00:00 27.1 17 Sudeste 33 Sudeste 0 -- -- 32
2020-09-14 14:00:00 25.6 20 Sudeste 35 Sudeste 0 -- -- 33
2020-09-14 13:00:00 24.6 23 Sudeste 40 Sudeste 0 -- -- 36
2020-09-14 12:00:00 24.4 16 Sudeste 37 Sur 0 -- -- 37
2020-09-14 11:00:00 23.1 14 Sudeste 26 Sudeste 0 -- -- 43
2020-09-14 10:00:00 15.2 4 Sudeste 13 Sudeste 0 -- -- 65
2020-09-14 09:00:00 11.9 6 Sudeste 12 Sudeste 0 -- -- 74
2020-09-14 08:00:00 11 6 Sudeste 17 Sur 0 -- -- 74
2020-09-14 07:00:00 11.7 4 Sudeste 24 Sur 0 -- -- 71
2020-09-14 06:00:00 12.1 16 Sudeste 24 Sudeste 0 -- -- 69
2020-09-14 05:00:00 11.8 4 Sudeste 12 Sudeste 0 -- -- 69
2020-09-14 04:00:00 13.1 6 Este 18 Sudeste 0 -- -- 65
2020-09-14 03:00:00 13.9 10 Sudeste 20 Sur 0 -- -- 62
2020-09-14 02:00:00 15.2 8 Sur 19 Sur 0 -- -- 58
2020-09-14 01:00:00 16.3 9 Sur 15 Sudeste 0 -- -- 56
2020-09-14 00:00:00 17.4 9 Sudoeste 15 Sur 0 -- -- 53
2020-09-13 23:00:00 19.3 10 Sur 17 Sudoeste 0 -- -- 49
2020-09-13 22:00:00 20.9 17 Sudoeste 33 Sur 0 -- -- 45
2020-09-13 21:00:00 22 19 Sur 31 Sur 0 -- -- 44
2020-09-13 20:00:00 24 14 Sudeste 32 Sur 0 -- -- 40
2020-09-13 19:00:00 25.8 14 Sudeste 29 Sudeste 0 -- -- 35
2020-09-13 18:00:00 27.9 12 Este 28 Este 0 -- -- 31
2020-09-13 17:00:00 29.3 9 Sudeste 31 Sudeste 0 -- -- 26
2020-09-13 16:00:00 29.2 15 Sudeste 33 Este 0 -- -- 27
2020-09-13 15:00:00 28.8 14 Este 29 Este 0 -- -- 24
2020-09-13 14:00:00 28.2 9 Este 23 Sudeste 0 -- -- 25
2020-09-13 13:00:00 27.3 10 Sur 26 Sudeste 0 -- -- 26
2020-09-13 12:00:00 25.1 7 Norte 13 Norte 0 -- -- 37
2020-09-13 11:00:00 23.4 6 Sudeste 15 Sudeste 0 -- -- 41
2020-09-13 10:00:00 17.7 10 Sudeste 25 Sudeste 0 -- -- 57
2020-09-13 09:00:00 13.4 14 Sudeste 23 Sur 0 -- -- 69
2020-09-13 08:00:00 12.1 14 Sudeste 24 Sudeste 0 -- -- 72
2020-09-13 07:00:00 12.2 13 Sudeste 27 Sudeste 0 -- -- 72
2020-09-13 06:00:00 12.4 14 Sudeste 23 Sudeste 0 -- -- 72
2020-09-13 05:00:00 13 14 Sudeste 23 Sudeste 0 -- -- 70
2020-09-13 04:00:00 13.5 5 Sudeste 20 Sudeste 0 -- -- 70
2020-09-13 03:00:00 14.2 6 Sudeste 12 Este 0 -- -- 68
2020-09-13 02:00:00 15.4 6 Sudeste 11 Sur 0 -- -- 65
2020-09-13 01:00:00 16.4 2 Sur 6 Sudoeste 0 -- -- 62
2020-09-13 00:00:00 17.7 4 Sur 9 Sudeste 0 -- -- 59
2020-09-12 23:00:00 19.1 5 Sudeste 10 Sudeste 0 -- -- 57
2020-09-12 22:00:00 21.2 7 Sudeste 24 Este 0 -- -- 52
2020-09-12 21:00:00 22.8 7 Oeste 18 Este 0 -- -- 49
2020-09-12 20:00:00 25.4 7 Sudeste 22 Sudeste 0 -- -- 38
2020-09-12 19:00:00 26.7 2 Este 22 Norte 0 -- -- 31
2020-09-12 18:00:00 28.3 8 Norte 17 Norte 0 -- -- 28
2020-09-12 17:00:00 29.4 9 Este 22 Nordeste 0 -- -- 27
2020-09-12 16:00:00 28.5 5 Nordeste 29 Este 0 -- -- 28
2020-09-12 15:00:00 28.3 8 Nordeste 36 Sur 0 -- -- 29
2020-09-12 14:00:00 27.3 4 Este 15 Norte 0 -- -- 32
2020-09-12 13:00:00 26.1 7 Norte 18 Nordeste 0 -- -- 35
2020-09-12 12:00:00 24 5 Nordeste 12 Norte 0 -- -- 40
2020-09-12 11:00:00 21.3 4 Norte 15 Este 0 -- -- 43
2020-09-12 10:00:00 16.3 9 Este 18 Este 0 -- -- 59
2020-09-12 09:00:00 11.9 13 Este 22 Sudeste 0 -- -- 73
2020-09-12 08:00:00 10.6 8 Sudeste 21 Sudeste 0 -- -- 77
2020-09-12 07:00:00 11 8 Sudeste 19 Este 0 -- -- 75
2020-09-12 06:00:00 11.7 6 Sudeste 14 Sudeste 0 -- -- 74
2020-09-12 05:00:00 12.2 9 Sudeste 17 Sudeste 0 -- -- 74
2020-09-12 04:00:00 12.7 6 Sudeste 13 Sudeste 0 -- -- 72
2020-09-12 03:00:00 13.7 9 Sudeste 13 Sudeste 0 -- -- 69
2020-09-12 02:00:00 14.5 2 Sur 6 Nordeste 0 -- -- 67
2020-09-12 01:00:00 15 0 Calma 6 Norte 0 -- -- 65
2020-09-12 00:00:00 16.4 0 Calma 8 Norte 0 -- -- 60
2020-09-11 23:00:00 17.9 4 Noroeste 10 Norte 0 -- -- 56
2020-09-11 22:00:00 19.8 6 Noroeste 14 Nordeste 0 -- -- 52
2020-09-11 21:00:00 21.1 6 Noroeste 12 Este 0 -- -- 38
2020-09-11 20:00:00 22.8 9 Noroeste 17 Noroeste 0 -- -- 33
2020-09-11 19:00:00 25.2 8 Noroeste 19 Norte 0 -- -- 29
2020-09-11 18:00:00 27.1 12 Norte 23 Norte 0 -- -- 27
2020-09-11 17:00:00 27.2 11 Norte 23 Norte 0 -- -- 26
2020-09-11 16:00:00 28 6 Nordeste 19 Norte 0 -- -- 27
2020-09-11 15:00:00 26.8 7 Norte 22 Norte 0 -- -- 29
2020-09-11 14:00:00 26.9 6 Nordeste 22 Norte 0 -- -- 30
2020-09-11 13:00:00 26.1 6 Sudeste 19 Sudeste 0 -- -- 31
2020-09-11 12:00:00 24.3 5 Este 10 Nordeste 0 -- -- 35
2020-09-11 11:00:00 20.7 4 Este 12 Este 0 -- -- 42
2020-09-11 10:00:00 15.6 8 Sudeste 14 Sudeste 0 -- -- 53
2020-09-11 09:00:00 10.7 8 Sudeste 21 Sudeste 0 -- -- 66
2020-09-11 08:00:00 9.8 15 Sudeste 29 Sudeste 0 -- -- 67
2020-09-11 07:00:00 9.5 13 Sudeste 23 Sudeste 0 -- -- 69
2020-09-11 06:00:00 10.2 12 Sudeste 21 Este 0 -- -- 67
2020-09-11 05:00:00 10.8 11 Sudeste 20 Sudeste 0 -- -- 65
2020-09-11 04:00:00 10.6 3 Sur 11 Este 0 -- -- 66
2020-09-11 03:00:00 11.4 0 Calma 6 Sudeste 0 -- -- 63
2020-09-11 02:00:00 12.5 2 Sur 7 Sudeste 0 -- -- 60
2020-09-11 01:00:00 13.6 3 Sudoeste 8 Noroeste 0 -- -- 57
2020-09-11 00:00:00 15.1 5 Sur 9 Sudeste 0 -- -- 53
2020-09-10 23:00:00 15.3 3 Sur 8 Sur 0 -- -- 55
2020-09-10 22:00:00 17.3 2 Oeste 5 Noroeste 0 -- -- 49
2020-09-10 21:00:00 19.6 5 Noroeste 19 Noroeste 0 -- -- 43
2020-09-10 20:00:00 22.3 13 Noroeste 28 Noroeste 0 -- -- 37
2020-09-10 19:00:00 23.6 17 Noroeste 27 Noroeste 0 -- -- 37
2020-09-10 18:00:00 24.4 14 Norte 27 Norte 0 -- -- 36
2020-09-10 17:00:00 24.2 14 Norte 27 Norte 0 -- -- 35
2020-09-10 16:00:00 24.2 6 Norte 28 Noroeste 0 -- -- 35
2020-09-10 15:00:00 24.4 13 Noroeste 26 Oeste 0 -- -- 35
2020-09-10 14:00:00 24.1 8 Norte 24 Noroeste 0 -- -- 36
2020-09-10 13:00:00 23.1 6 Nordeste 23 Norte 0 -- -- 40
2020-09-10 12:00:00 20.5 6 Norte 20 Norte 0 -- -- 49
2020-09-10 11:00:00 19 8 Nordeste 15 Norte 0 -- -- 55
2020-09-10 10:00:00 16.2 4 Nordeste 8 Sudeste 0 -- -- 67
2020-09-10 09:00:00 11.2 2 Este 9 Sudeste 0 -- -- 80
2020-09-10 08:00:00 9.3 2 Sudeste 11 Noroeste 0 -- -- 84
2020-09-10 07:00:00 10.1 0 Calma 9 Noroeste 0 -- -- 80
2020-09-10 06:00:00 10.8 0 Calma 8 Sudeste 0 -- -- 76
2020-09-10 05:00:00 11.4 4 Sudoeste 11 Noroeste 0 -- -- 72
2020-09-10 04:00:00 12.6 2 Sur 11 Sudeste 0 -- -- 66
2020-09-10 03:00:00 13.6 4 Oeste 12 Sudeste 0 -- -- 62
2020-09-10 02:00:00 13.2 0 Calma 5 Sudeste 0 -- -- 63
2020-09-10 01:00:00 13.2 0 Calma 8 Este 0 -- -- 63
2020-09-10 00:00:00 14.1 2 Sudeste 9 Sudeste 0 -- -- 61
2020-09-09 23:00:00 15.6 0 Calma 9 Sudeste 0 -- -- 56
2020-09-09 22:00:00 17.2 2 Sur 8 Noroeste 0 -- -- 52
2020-09-09 21:00:00 19.4 0 Calma 7 Sudeste 0 -- -- 47
2020-09-09 20:00:00 20.9 3 Sudeste 10 Nordeste 0 -- -- 44
2020-09-09 19:00:00 21.3 3 Sudeste 19 Norte 0 -- -- 43
2020-09-09 18:00:00 22.1 6 Norte 25 Norte 0 -- -- 41
2020-09-09 17:00:00 21.6 10 Norte 23 Norte 0 -- -- 43
2020-09-09 16:00:00 21.3 10 Nordeste 21 Norte 0 -- -- 44
2020-09-09 15:00:00 21.3 10 Norte 21 Norte 0 -- -- 43
2020-09-09 14:00:00 21.8 12 Noroeste 21 Norte 0 -- -- 41
2020-09-09 13:00:00 21.2 12 Norte 19 Norte 0 -- -- 45
2020-09-09 12:00:00 19.4 8 Nordeste 20 Nordeste 0 -- -- 51
2020-09-09 11:00:00 17.8 9 Nordeste 15 Norte 0 -- -- 53
2020-09-09 10:00:00 15 4 Nordeste 10 Sudeste 0 -- -- 59
2020-09-09 09:00:00 9.6 0 Calma 13 Sudeste 0 -- -- 74
2020-09-09 08:00:00 8.5 4 Sudoeste 10 Sudeste 0 -- -- 77
2020-09-09 07:00:00 9.2 0 Calma 7 Noroeste 0 -- -- 73
2020-09-09 06:00:00 9.8 2 Sudoeste 9 Noroeste 0 -- -- 71
2020-09-09 05:00:00 10.5 3 Sudeste 9 Sudeste 0 -- -- 69
2020-09-09 04:00:00 11.8 0 Calma 6 Este 0 -- -- 65
2020-09-09 03:00:00 12.6 0 Calma 6 Oeste 0 -- -- 63
2020-09-09 02:00:00 13.2 4 Noroeste 8 Sur 0 -- -- 60
2020-09-09 01:00:00 15.2 5 Sur 14 Sudoeste 0 -- -- 55
2020-09-09 00:00:00 16.2 7 Sur 15 Sudoeste 0 -- -- 52
2020-09-08 23:00:00 16.9 0 Calma 13 Sudeste 0 -- -- 50
2020-09-08 22:00:00 17.6 9 Sur 17 Sur 0 -- -- 48
2020-09-08 21:00:00 18.4 4 Este 22 Sudeste 0 -- -- 45
2020-09-08 20:00:00 20.2 2 Sudoeste 18 Este 0 -- -- 38
2020-09-08 19:00:00 22.3 10 Sudeste 24 Sudeste 0 -- -- 34
2020-09-08 18:00:00 22.9 8 Sudeste 15 Este 0 -- -- 32
2020-09-08 17:00:00 22.5 9 Norte 22 Este 0 -- -- 32
2020-09-08 16:00:00 22 8 Norte 22 Este 0 -- -- 33
2020-09-08 15:00:00 20.7 8 Sudeste 23 Norte 0 -- -- 36
2020-09-08 14:00:00 20 9 Norte 22 Este 0 -- -- 36
2020-09-08 13:00:00 19.3 7 Nordeste 18 Norte 0 -- -- 40
2020-09-08 12:00:00 16.8 7 Norte 15 Nordeste 0 -- -- 44
2020-09-08 11:00:00 14.7 4 Este 12 Este 0 -- -- 53
2020-09-08 10:00:00 11 7 Este 14 Este 0 -- -- 63
2020-09-08 09:00:00 6.2 5 Sudeste 17 Sudeste 0 -- -- 78
2020-09-08 08:00:00 4 0 Calma 11 Sudeste 0 -- -- 84
2020-09-08 07:00:00 4.6 4 Sudeste 12 Sudeste 0 -- -- 82
2020-09-08 06:00:00 5.4 0 Calma 9 Sudeste 0 -- -- 79
2020-09-08 05:00:00 5.6 2 Sur 8 Sur 0 -- -- 78
2020-09-08 04:00:00 5.9 2 Sur 8 Sur 0 -- -- 75
2020-09-08 03:00:00 6.9 2 Sudoeste 6 Sudeste 0 -- -- 73
2020-09-08 02:00:00 7.8 0 Calma 8 Oeste 0 -- -- 69
2020-09-08 01:00:00 8.8 4 Noroeste 10 Oeste 0 -- -- 66
2020-09-08 00:00:00 11.1 0 Calma 17 Noroeste 0 -- -- 59
2020-09-07 23:00:00 12.7 10 Noroeste 21 Noroeste 0 -- -- 53
2020-09-07 22:00:00 13.8 5 Noroeste 12 Noroeste 0 -- -- 47
2020-09-07 21:00:00 15.5 6 Noroeste 17 Norte 0 -- -- 43
2020-09-07 20:00:00 17.3 8 Norte 26 Noroeste 0 -- -- 37
2020-09-07 19:00:00 19.1 12 Norte 35 Noroeste 0 -- -- 33
2020-09-07 18:00:00 19.8 17 Noroeste 33 Noroeste 0 -- -- 34
2020-09-07 17:00:00 19.9 18 Noroeste 37 Noroeste 0 -- -- 34
2020-09-07 16:00:00 20.1 19 Noroeste 35 Norte 0 -- -- 33
2020-09-07 15:00:00 18.9 15 Nordeste 33 Noroeste 0 -- -- 36
2020-09-07 14:00:00 18.1 17 Norte 40 Noroeste 0 -- -- 41
2020-09-07 13:00:00 17.7 13 Norte 27 Nordeste 0 -- -- 41
2020-09-07 12:00:00 15.6 15 Norte 28 Nordeste 0 -- -- 50
2020-09-07 11:00:00 14.5 12 Norte 24 Norte 0 -- -- 55
2020-09-07 10:00:00 12.6 10 Nordeste 22 Nordeste 0 -- -- 65
2020-09-07 09:00:00 9.8 5 Norte 13 Nordeste 0 -- -- 79
2020-09-07 08:00:00 8.6 2 Noroeste 13 Noroeste 0 -- -- 85
2020-09-07 07:00:00 9 7 Noroeste 11 Noroeste 0 -- -- 83
2020-09-07 06:00:00 9.2 5 Noroeste 13 Noroeste 0 -- -- 83
2020-09-07 05:00:00 10.6 9 Norte 17 Noroeste 0 -- -- 78
2020-09-07 04:00:00 12.1 11 Norte 19 Noroeste 0 -- -- 71
2020-09-07 03:00:00 12.9 7 Norte 13 Nordeste 0 -- -- 69
2020-09-07 02:00:00 13.4 5 Norte 15 Norte 0 -- -- 67
2020-09-07 01:00:00 14.7 7 Norte 14 Norte 0 -- -- 63
2020-09-07 00:00:00 16.3 4 Norte 12 Norte 0 -- -- 59
2020-09-06 23:00:00 16.8 6 Norte 17 Norte 0 -- -- 59
2020-09-06 22:00:00 17.9 8 Norte 27 Norte 0 -- -- 57
2020-09-06 21:00:00 19.5 9 Norte 22 Noroeste 0 -- -- 54
2020-09-06 20:00:00 23.1 8 Noroeste 20 Noroeste 0 -- -- 46
2020-09-06 19:00:00 24.7 9 Norte 28 Noroeste 0 -- -- 43
2020-09-06 18:00:00 26.5 9 Norte 18 Norte 0 -- -- 36
2020-09-06 17:00:00 27.2 4 Este 12 Este 0 -- -- 33
2020-09-06 16:00:00 26.8 4 Nordeste 16 Norte 0 -- -- 37
2020-09-06 15:00:00 24.9 9 Noroeste 28 Norte 0 -- -- 41
2020-09-06 14:00:00 25.1 13 Norte 23 Noroeste 0 -- -- 43
2020-09-06 13:00:00 24.3 10 Norte 18 Norte 0 -- -- 47
2020-09-06 12:00:00 22.4 10 Norte 19 Norte 0 -- -- 50
2020-09-06 11:00:00 23.1 4 Este 15 Este 0 -- -- 44
2020-09-06 10:00:00 18.4 10 Este 18 Sudeste 0 -- -- 50
2020-09-06 09:00:00 13.6 7 Este 19 Sudeste 0 -- -- 63
2020-09-06 08:00:00 12 12 Sudeste 21 Sudeste 0 -- -- 67
2020-09-06 07:00:00 11.9 3 Sur 8 Oeste 0 -- -- 69
2020-09-06 06:00:00 13.3 4 Sudeste 7 Sudeste 0 -- -- 66
2020-09-06 05:00:00 14.7 2 Oeste 18 Sudeste 0 -- -- 62
2020-09-06 04:00:00 16 15 Sudeste 24 Sudeste 0 -- -- 60
2020-09-06 03:00:00 16.6 10 Sudeste 17 Sur 0 -- -- 62
2020-09-06 02:00:00 16.9 3 Sudeste 13 Sudoeste 0 -- -- 63
2020-09-06 01:00:00 17.6 3 Sudeste 8 Sudoeste 0 -- -- 63
2020-09-06 00:00:00 18.9 3 Oeste 8 Noroeste 0 -- -- 60
2020-09-05 23:00:00 20.9 5 Oeste 10 Oeste 0 -- -- 51
2020-09-05 22:00:00 22.8 6 Norte 15 Norte 0 -- -- 46
2020-09-05 21:00:00 24.1 9 Este 22 Sudeste 0 -- -- 46
2020-09-05 20:00:00 26.1 13 Sudeste 25 Este 0 -- -- 41
2020-09-05 19:00:00 28.1 9 Norte 23 Norte 0 -- -- 30
2020-09-05 18:00:00 29.4 10 Norte 19 Noroeste 0 -- -- 28
2020-09-05 17:00:00 29.6 8 Este 23 Norte 0 -- -- 27
2020-09-05 16:00:00 28.7 8 Noroeste 18 Norte 0 -- -- 26
2020-09-05 15:00:00 28.6 8 Norte 22 Nordeste 0 -- -- 24
2020-09-05 14:00:00 27.7 6 Noroeste 18 Norte 0 -- -- 30
2020-09-05 13:00:00 26.9 6 Nordeste 20 Norte 0 -- -- 34
2020-09-05 12:00:00 25.6 8 Nordeste 15 Nordeste 0 -- -- 36
2020-09-05 11:00:00 22.9 2 Nordeste 13 Sudeste 0 -- -- 42
2020-09-05 10:00:00 18 9 Este 16 Este 0 -- -- 55
2020-09-05 09:00:00 12.8 7 Este 15 Este 0 -- -- 71
2020-09-05 08:00:00 11.4 4 Sudeste 15 Este 0 -- -- 75
2020-09-05 07:00:00 12.2 8 Sudeste 18 Sudeste 0 -- -- 72
2020-09-05 06:00:00 13 11 Sudeste 19 Sudeste 0 -- -- 69
2020-09-05 05:00:00 13.5 7 Sudeste 18 Sudeste 0 -- -- 68
2020-09-05 04:00:00 14.6 9 Sudeste 16 Sudeste 0 -- -- 67
2020-09-05 03:00:00 16.1 5 Sur 14 Sudoeste 0 -- -- 65
2020-09-05 02:00:00 17.2 9 Sudoeste 15 Oeste 0 -- -- 63
2020-09-05 01:00:00 17.6 8 Sudoeste 17 Sudoeste 0 -- -- 61
2020-09-05 00:00:00 18.5 5 Sudoeste 18 Sudoeste 0 -- -- 57
2020-09-04 23:00:00 20.3 10 Sur 23 Sur 0 -- -- 50
2020-09-04 22:00:00 21.4 10 Sudoeste 22 Sudoeste 0 -- -- 45
2020-09-04 21:00:00 23.3 5 Sudeste 27 Sudeste 0 -- -- 39
2020-09-04 20:00:00 25.8 12 Sudeste 25 Sudeste 0 -- -- 30
2020-09-04 19:00:00 28.6 12 Este 29 Este 0 -- -- 23
2020-09-04 18:00:00 29.2 15 Sudeste 30 Sudeste 0 -- -- 23
2020-09-04 17:00:00 29.7 9 Sudeste 26 Este 0 -- -- 19
2020-09-04 16:00:00 29.7 9 Sudeste 27 Sudeste 0 -- -- 18
2020-09-04 15:00:00 28.3 6 Noroeste 19 Nordeste 0 -- -- 23
2020-09-04 14:00:00 27.8 8 Norte 20 Nordeste 0 -- -- 27
2020-09-04 13:00:00 25.7 6 Noroeste 16 Oeste 0 -- -- 33
2020-09-04 12:00:00 24 6 Norte 13 Norte 0 -- -- 39
2020-09-04 11:00:00 22.4 7 Este 16 Este 0 -- -- 45
2020-09-04 10:00:00 17.5 7 Este 22 Este 0 -- -- 60
2020-09-04 09:00:00 13.3 13 Sudeste 22 Sudeste 0 -- -- 74
2020-09-04 08:00:00 11.5 6 Sudeste 17 Sudeste 0 -- -- 82
2020-09-04 07:00:00 12.2 11 Sudeste 16 Sur 0 -- -- 79
2020-09-04 06:00:00 13.1 8 Sudeste 13 Sudeste 0 -- -- 78
2020-09-04 05:00:00 14.1 9 Sudeste 19 Sur 0 -- -- 76
2020-09-04 04:00:00 15.4 9 Sur 15 Sur 0 -- -- 70
2020-09-04 03:00:00 16.1 8 Sur 18 Sudoeste 0 -- -- 70
2020-09-04 02:00:00 16.9 8 Sur 19 Sur 0 -- -- 74
2020-09-04 01:00:00 17.4 6 Sudoeste 15 Sur 0 -- -- 73
2020-09-04 00:00:00 18.5 9 Sur 17 Sur 0 -- -- 70
2020-09-03 23:00:00 19.5 13 Sur 23 Sur 0 -- -- 66
2020-09-03 22:00:00 20.9 12 Sur 20 Sur 0 -- -- 61
2020-09-03 21:00:00 22.7 5 Sur 24 Sur 0 -- -- 52
2020-09-03 20:00:00 25 15 Sur 24 Sur 0 -- -- 43
2020-09-03 19:00:00 27.5 10 Este 22 Este 0 -- -- 27
2020-09-03 18:00:00 28.3 6 Nordeste 21 Sudeste 0 -- -- 27
2020-09-03 17:00:00 28.5 6 Este 22 Sudeste 0 -- -- 29
2020-09-03 16:00:00 27.8 8 Este 23 Norte 0 -- -- 30
2020-09-03 15:00:00 27.7 7 Nordeste 18 Nordeste 0 -- -- 30
2020-09-03 14:00:00 26.2 7 Este 23 Noroeste 0 -- -- 33
2020-09-03 13:00:00 24.9 8 Norte 18 Norte 0 -- -- 35
2020-09-03 12:00:00 22.8 12 Norte 18 Norte 0 -- -- 46
2020-09-03 11:00:00 21.5 7 Este 15 Este 0 -- -- 49
2020-09-03 10:00:00 17.2 6 Sudeste 12 Sudeste 0 -- -- 68
2020-09-03 09:00:00 12.2 7 Sudeste 18 Sudeste 0 -- -- 78
2020-09-03 08:00:00 10.9 6 Sur 15 Sudoeste 0 -- -- 85
2020-09-03 07:00:00 11.9 5 Sudeste 14 Sur 0 -- -- 88
2020-09-03 06:00:00 12 4 Sudeste 18 Sudeste 0 -- -- 85
2020-09-03 05:00:00 11.3 8 Sudeste 17 Sudeste 0 -- -- 71
2020-09-03 04:00:00 12.1 9 Sudeste 14 Sudeste 0 -- -- 68
2020-09-03 03:00:00 12.1 8 Sudeste 12 Sudeste 0 -- -- 71
2020-09-03 02:00:00 12 0 Calma 6 Norte 0 -- -- 70
2020-09-03 01:00:00 13.1 0 Calma 10 Norte 0 -- -- 61
2020-09-03 00:00:00 14.9 3 Oeste 7 Norte 0 -- -- 60
2020-09-02 23:00:00 16.6 5 Norte 12 Norte 0 -- -- 51
2020-09-02 22:00:00 18.4 3 Norte 17 Noroeste 0 -- -- 39
2020-09-02 21:00:00 19.9 11 Noroeste 16 Norte 0 -- -- 36
2020-09-02 20:00:00 22.4 8 Norte 14 Norte 0 -- -- 30
2020-09-02 19:00:00 24.5 4 Este 19 Norte 0 -- -- 29
2020-09-02 18:00:00 24.6 10 Norte 23 Norte 0 -- -- 30
2020-09-02 17:00:00 24.7 10 Norte 22 Norte 0 -- -- 31
2020-09-02 16:00:00 24 10 Norte 24 Norte 0 -- -- 32
2020-09-02 15:00:00 23.6 10 Nordeste 21 Nordeste 0 -- -- 33
2020-09-02 14:00:00 22.1 11 Norte 21 Norte 0 -- -- 36
2020-09-02 13:00:00 20.6 9 Norte 20 Norte 0 -- -- 39
2020-09-02 12:00:00 18.9 6 Norte 13 Nordeste 0 -- -- 44
2020-09-02 11:00:00 17 5 Norte 13 Norte 0 -- -- 47
2020-09-02 10:00:00 14 4 Sudeste 13 Sudeste 0 -- -- 53
2020-09-02 09:00:00 9.2 5 Este 13 Este 0 -- -- 62
2020-09-02 08:00:00 7 0 Calma 10 Sudeste 0 -- -- 68
2020-09-02 07:00:00 7.7 3 Sudeste 10 Sur 0 -- -- 65
2020-09-02 06:00:00 9.1 2 Sudeste 8 Noroeste 0 -- -- 61
2020-09-02 05:00:00 10 2 Sudoeste 8 Sur 0 -- -- 58
2020-09-02 04:00:00 11.1 4 Sudeste 11 Sudeste 0 -- -- 54
2020-09-02 03:00:00 12.8 4 Sur 15 Noroeste 0 -- -- 50
2020-09-02 02:00:00 14.2 5 Noroeste 15 Noroeste 0 -- -- 51
2020-09-02 01:00:00 14.9 0 Calma 7 Sudeste 0 -- -- 43
2020-09-02 00:00:00 15.8 0 Calma 6 Oeste 0 -- -- 45
2020-09-01 23:00:00 17.5 4 Norte 12 Norte 0 -- -- 42
2020-09-01 22:00:00 18.6 6 Nordeste 15 Norte 0 -- -- 39
2020-09-01 21:00:00 19.6 5 Norte 16 Noroeste 0 -- -- 35
2020-09-01 20:00:00 20.5 7 Noroeste 22 Noroeste 0 -- -- 30
2020-09-01 19:00:00 21.7 9 Noroeste 26 Noroeste 0 -- -- 28
2020-09-01 18:00:00 22.5 10 Norte 27 Noroeste 0 -- -- 27
2020-09-01 17:00:00 23.7 13 Norte 24 Norte 0 -- -- 26
2020-09-01 16:00:00 24.3 10 Norte 22 Nordeste 0 -- -- 23
2020-09-01 15:00:00 22.9 10 Norte 19 Norte 0 -- -- 26
2020-09-01 14:00:00 22.8 4 Norte 16 Sudeste 0 -- -- 24
2020-09-01 13:00:00 22.2 8 Este 14 Nordeste 0 -- -- 26
2020-09-01 12:00:00 20.4 4 Este 14 Este 0 -- -- 31
2020-09-01 11:00:00 16.6 7 Sudeste 17 Sudeste 0 -- -- 43
2020-09-01 10:00:00 14.8 12 Sudeste 22 Sudeste 0 -- -- 50
2020-09-01 09:00:00 10.8 8 Sudeste 23 Sudeste 0 -- -- 50
2020-09-01 08:00:00 9.7 12 Sudeste 21 Sudeste 0 -- -- 48
2020-09-01 07:00:00 9.5 5 Sudeste 19 Este 0 -- -- 48
2020-09-01 06:00:00 9.7 12 Sudeste 20 Sudeste 0 -- -- 46
2020-09-01 05:00:00 10.3 13 Sudeste 23 Sudeste 0 -- -- 43
2020-09-01 04:00:00 10.7 10 Sudeste 15 Este 0 -- -- 43
2020-09-01 03:00:00 9.4 5 Sur 8 Sudeste 0 -- -- 48
2020-09-01 02:00:00 10.1 3 Sudeste 6 Sudeste 0 -- -- 44
2020-09-01 01:00:00 11.7 0 Calma 5 Sudeste 0 -- -- 44
2020-09-01 00:00:00 13.5 2 Oeste 7 Sur 0 -- -- 42
2020-08-31 23:00:00 15.6 4 Oeste 11 Oeste 0 -- -- 41
2020-08-31 22:00:00 17.8 4 Oeste 14 Oeste 0 -- -- 28
2020-08-31 21:00:00 19.3 10 Noroeste 16 Noroeste 0 -- -- 26
2020-08-31 20:00:00 22.1 7 Norte 16 Noroeste 0 -- -- 27
2020-08-31 19:00:00 23.6 7 Norte 23 Norte 0 -- -- 27
2020-08-31 18:00:00 24 6 Norte 18 Norte 0 -- -- 27
2020-08-31 17:00:00 23.8 9 Norte 22 Norte 0 -- -- 29
2020-08-31 16:00:00 22.9 13 Norte 26 Norte 0 -- -- 31
2020-08-31 15:00:00 22.9 12 Sudeste 27 Sudeste 0 -- -- 30
2020-08-31 14:00:00 21.9 9 Sudeste 19 Norte 0 -- -- 30
2020-08-31 13:00:00 20.5 8 Este 19 Este 0 -- -- 32
2020-08-31 12:00:00 17.9 9 Norte 17 Norte 0 -- -- 37
2020-08-31 11:00:00 15.2 10 Norte 15 Norte 0 -- -- 51
2020-08-31 10:00:00 11.2 8 Sudeste 20 Sudeste 0 -- -- 64
2020-08-31 09:00:00 6.1 10 Este 18 Este 0 -- -- 80
2020-08-31 08:00:00 4.1 11 Este 18 Este 0 -- -- 84
2020-08-31 07:00:00 4.3 3 Sudeste 14 Sudeste 0 -- -- 85
2020-08-31 06:00:00 5.1 6 Sudeste 15 Sudeste 0 -- -- 83
2020-08-31 05:00:00 5.2 6 Sudeste 13 Este 0 -- -- 83
2020-08-31 04:00:00 5.9 0 Calma 6 Oeste 0 -- -- 82
2020-08-31 03:00:00 6.5 0 Calma 7 Noroeste 0 -- -- 79
2020-08-31 02:00:00 7.4 0 Calma 6 Oeste 0 -- -- 76
2020-08-31 01:00:00 8.2 3 Oeste 6 Noroeste 0 -- -- 73
2020-08-31 00:00:00 10.3 2 Noroeste 10 Noroeste 0 -- -- 65
2020-08-30 23:00:00 11.5 5 Noroeste 18 Noroeste 0 -- -- 61
2020-08-30 22:00:00 12.9 14 Noroeste 32 Noroeste 0 -- -- 56
2020-08-30 21:00:00 14.3 15 Noroeste 31 Noroeste 0 -- -- 51
2020-08-30 20:00:00 16.4 14 Noroeste 32 Noroeste 0 -- -- 38
2020-08-30 19:00:00 17.5 9 Norte 20 Nordeste 0 -- -- 29
2020-08-30 18:00:00 18.1 14 Noroeste 26 Norte 0 -- -- 30
2020-08-30 17:00:00 18.8 10 Norte 26 Norte 0 -- -- 30
2020-08-30 16:00:00 18.4 14 Norte 34 Norte 0 -- -- 33
2020-08-30 15:00:00 18 10 Nordeste 28 Norte 0 -- -- 34
2020-08-30 14:00:00 17 12 Nordeste 28 Norte 0 -- -- 38
2020-08-30 13:00:00 15.6 10 Norte 24 Nordeste 0 -- -- 44
2020-08-30 12:00:00 14.5 14 Norte 27 Noroeste 0 -- -- 46
2020-08-30 11:00:00 12.7 16 Noroeste 28 Noroeste 0 -- -- 52
2020-08-30 10:00:00 11.2 13 Noroeste 30 Noroeste 0 -- -- 60
2020-08-30 09:00:00 8.4 6 Norte 18 Oeste 0 -- -- 72
2020-08-30 08:00:00 5.9 3 Sur 17 Noroeste 0 -- -- 78
2020-08-30 07:00:00 6.9 5 Norte 14 Oeste 0 -- -- 71
2020-08-30 06:00:00 7.6 5 Sudoeste 21 Oeste 0 -- -- 67
2020-08-30 05:00:00 7.5 4 Norte 10 Noroeste 0 -- -- 72
2020-08-30 04:00:00 8.9 3 Noroeste 17 Oeste 0 -- -- 71
2020-08-30 03:00:00 9.5 4 Oeste 21 Noroeste 0 -- -- 72
2020-08-30 02:00:00 10.3 9 Noroeste 24 Noroeste 0 -- -- 71
2020-08-30 01:00:00 10.7 3 Noroeste 32 Noroeste 0 -- -- 68
2020-08-30 00:00:00 11.3 17 Noroeste 33 Noroeste 0 -- -- 64
2020-08-29 23:00:00 12.1 19 Noroeste 34 Norte 0 -- -- 57
2020-08-29 22:00:00 13.1 15 Noroeste 31 Noroeste 0 -- -- 54
2020-08-29 21:00:00 14.6 20 Noroeste 37 Norte 0 -- -- 49
2020-08-29 20:00:00 16.5 30 Noroeste 48 Noroeste 0 -- -- 44
2020-08-29 19:00:00 18.3 19 Noroeste 39 Noroeste 0 -- -- 34
2020-08-29 18:00:00 19.3 23 Noroeste 42 Norte 0 -- -- 34
2020-08-29 17:00:00 19.4 23 Noroeste 40 Noroeste 0 -- -- 32
2020-08-29 16:00:00 19.8 18 Noroeste 39 Noroeste 0 -- -- 31
2020-08-29 15:00:00 18.6 17 Noroeste 32 Oeste 0 -- -- 36
2020-08-29 14:00:00 17.9 20 Noroeste 34 Noroeste 0 -- -- 39
2020-08-29 13:00:00 16.8 18 Norte 31 Noroeste 0 -- -- 44
2020-08-29 12:00:00 15.8 14 Noroeste 28 Noroeste 0 -- -- 52
2020-08-29 11:00:00 14.2 13 Noroeste 22 Noroeste 0 -- -- 59
2020-08-29 10:00:00 12.8 8 Noroeste 17 Noroeste 0 -- -- 61
2020-08-29 09:00:00 12 4 Norte 13 Noroeste 0 -- -- 68
2020-08-29 08:00:00 11.1 6 Norte 15 Noroeste 0 -- -- 72
2020-08-29 07:00:00 10.8 6 Norte 26 Norte 0 -- -- 76
2020-08-29 06:00:00 10.5 11 Noroeste 25 Noroeste 0 -- -- 82
2020-08-29 05:00:00 11.2 13 Norte 27 Noroeste 0 -- -- 83
2020-08-29 04:00:00 12.1 13 Noroeste 25 Noroeste 0 -- -- 80
2020-08-29 03:00:00 12.9 9 Norte 21 Norte 0 -- -- 78
2020-08-29 02:00:00 13.6 10 Norte 20 Norte 0 -- -- 75
2020-08-29 01:00:00 13.8 9 Norte 22 Noroeste 0 -- -- 80
2020-08-29 00:00:00 14.9 8 Norte 20 Nordeste 0 -- -- 77
2020-08-28 23:00:00 16.4 12 Norte 22 Norte 0 -- -- 72
2020-08-28 22:00:00 18.6 12 Norte 19 Norte 0 -- -- 67
2020-08-28 21:00:00 21.4 10 Noroeste 22 Norte 0 -- -- 65
2020-08-28 20:00:00 23 12 Nordeste 30 Norte 0 -- -- 61
2020-08-28 19:00:00 25.6 15 Norte 30 Norte 0 -- -- 52
2020-08-28 18:00:00 30.4 13 Oeste 29 Sudoeste 0 -- -- 26
2020-08-28 17:00:00 28.2 10 Norte 19 Noroeste 0 -- -- 41
2020-08-28 16:00:00 27.5 9 Norte 22 Norte 0 -- -- 45
2020-08-28 15:00:00 27.3 9 Norte 24 Nordeste 0 -- -- 46
2020-08-28 14:00:00 28.3 9 Nordeste 20 Nordeste 0 -- -- 45
2020-08-28 13:00:00 27.7 10 Nordeste 19 Este 0 -- -- 45
2020-08-28 12:00:00 26 7 Norte 15 Norte 0 -- -- 47
2020-08-28 11:00:00 24.6 6 Norte 14 Sudeste 0 -- -- 48
2020-08-28 10:00:00 20.4 5 Sudeste 16 Este 0 -- -- 53
2020-08-28 09:00:00 16.8 2 Sudoeste 15 Sudeste 0 -- -- 60
2020-08-28 08:00:00 14.7 3 Oeste 9 Sudeste 0 -- -- 69
2020-08-28 07:00:00 15.2 4 Sur 10 Oeste 0 -- -- 65
2020-08-28 06:00:00 16 0 Calma 17 Este 0 -- -- 62
2020-08-28 05:00:00 17.8 11 Sudeste 19 Este 0 -- -- 57
2020-08-28 04:00:00 20.4 12 Sur 22 Sur 0 -- -- 48
2020-08-28 03:00:00 20.3 7 Sur 22 Sudoeste 0 -- -- 55
2020-08-28 02:00:00 21.3 10 Sur 22 Sur 0 -- -- 53
2020-08-28 01:00:00 20.3 4 Oeste 11 Oeste 0 -- -- 79
2020-08-28 00:00:00 21.9 4 Oeste 9 Noroeste 0 -- -- 71
2020-08-27 23:00:00 23.7 3 Oeste 8 Noroeste 0 -- -- 68
2020-08-27 22:00:00 25.6 6 Noroeste 10 Oeste 0 -- -- 60
2020-08-27 21:00:00 28.3 7 Norte 18 Norte 0 -- -- 39
2020-08-27 20:00:00 31.4 5 Norte 20 Oeste 0 -- -- 26
2020-08-27 19:00:00 33.3 5 Sudeste 19 Norte 0 -- -- 23
2020-08-27 18:00:00 33.6 10 Norte 23 Norte 0 -- -- 23
2020-08-27 17:00:00 33.4 12 Norte 21 Norte 0 -- -- 24
2020-08-27 16:00:00 33.3 9 Noroeste 29 Norte 0 -- -- 23
2020-08-27 15:00:00 33.3 6 Nordeste 25 Norte 0 -- -- 23
2020-08-27 14:00:00 33.1 6 Este 19 Norte 0 -- -- 23
2020-08-27 13:00:00 31.8 7 Nordeste 19 Norte 0 -- -- 27
2020-08-27 12:00:00 31.5 9 Oeste 26 Oeste 0 -- -- 21
2020-08-27 11:00:00 28.9 13 Sudeste 20 Sudeste 0 -- -- 29
2020-08-27 10:00:00 22.6 10 Este 23 Este 0 -- -- 47
2020-08-27 09:00:00 18.1 11 Sudeste 22 Sudeste 0 -- -- 57
2020-08-27 08:00:00 15.4 4 Norte 19 Sudeste 0 -- -- 61
2020-08-27 07:00:00 15.9 15 Sudeste 23 Sudeste 0 -- -- 60
2020-08-27 06:00:00 15.8 5 Sur 11 Este 0 -- -- 57
2020-08-27 05:00:00 17 5 Noroeste 19 Sudeste 0 -- -- 52
2020-08-27 04:00:00 18 8 Sudeste 14 Sudeste 0 -- -- 48
2020-08-27 03:00:00 18.4 7 Sudeste 15 Sudeste 0 -- -- 48
2020-08-27 02:00:00 18.8 2 Sudeste 10 Este 0 -- -- 51
2020-08-27 01:00:00 19.4 4 Sudeste 9 Norte 0 -- -- 51
2020-08-27 00:00:00 21.2 4 Sur 9 Sudoeste 0 -- -- 50
2020-08-26 23:00:00 23.6 0 Calma 17 Noroeste 0 -- -- 42
2020-08-26 22:00:00 25.9 4 Noroeste 12 Oeste 0 -- -- 35
2020-08-26 21:00:00 28.4 5 Noroeste 13 Oeste 0 -- -- 28
2020-08-26 20:00:00 31.7 7 Oeste 21 Sudoeste 0 -- -- 24
2020-08-26 19:00:00 34.4 6 Sur 21 Sur 0 -- -- 21
2020-08-26 18:00:00 34.8 13 Sur 36 Sudoeste 0 -- -- 20
2020-08-26 17:00:00 35.4 8 Sur 26 Oeste 0 -- -- 21
2020-08-26 16:00:00 35 5 Este 29 Sudoeste 0 -- -- 21
2020-08-26 15:00:00 34.9 7 Sudoeste 27 Sudeste 0 -- -- 22
2020-08-26 14:00:00 34 13 Sudeste 26 Sudoeste 0 -- -- 24
2020-08-26 13:00:00 33.3 9 Oeste 29 Sudoeste 0 -- -- 24
2020-08-26 12:00:00 32.4 8 Sudoeste 21 Sur 0 -- -- 25
2020-08-26 11:00:00 29 8 Este 14 Este 0 -- -- 39
2020-08-26 10:00:00 23.2 11 Este 21 Este 0 -- -- 52
2020-08-26 09:00:00 18.4 13 Este 20 Este 0 -- -- 63
2020-08-26 08:00:00 16.2 6 Este 19 Este 0 -- -- 65
2020-08-26 07:00:00 16.2 4 Norte 13 Este 0 -- -- 62
2020-08-26 06:00:00 16.9 4 Este 14 Sudoeste 0 -- -- 57
2020-08-26 05:00:00 18.2 7 Sur 15 Sudoeste 0 -- -- 54
2020-08-26 04:00:00 19.6 10 Sudoeste 19 Sudoeste 0 -- -- 45
2020-08-26 03:00:00 18.4 6 Sudeste 14 Sur 0 -- -- 51
2020-08-26 02:00:00 19.6 5 Sudoeste 10 Sur 0 -- -- 58
2020-08-26 01:00:00 20.5 5 Este 18 Este 0 -- -- 51
2020-08-26 00:00:00 20.7 5 Sudeste 8 Sudeste 0 -- -- 44
2020-08-25 23:00:00 22.8 0 Calma 11 Noroeste 0 -- -- 45
2020-08-25 22:00:00 25.2 0 Calma 11 Noroeste 0 -- -- 47
2020-08-25 21:00:00 28.2 4 Oeste 16 Oeste 0 -- -- 28
2020-08-25 20:00:00 31.1 10 Sudoeste 19 Sudoeste 0 -- -- 24
2020-08-25 19:00:00 33.6 9 Sudoeste 26 Sudoeste 0 -- -- 21
2020-08-25 18:00:00 34.2 11 Sudeste 27 Sudeste 0 -- -- 21
2020-08-25 17:00:00 34.4 9 Sudeste 27 Sudoeste 0 -- -- 20
2020-08-25 16:00:00 34.5 8 Oeste 21 Sur 0 -- -- 20
2020-08-25 15:00:00 33.3 8 Sudeste 24 Noroeste 0 -- -- 25
2020-08-25 14:00:00 32.6 8 Noroeste 27 Oeste 0 -- -- 25
2020-08-25 13:00:00 31.6 6 Norte 18 Sudeste 0 -- -- 25
2020-08-25 12:00:00 30.1 11 Sudeste 21 Este 0 -- -- 32
2020-08-25 11:00:00 28 9 Sudeste 18 Sudeste 0 -- -- 43
2020-08-25 10:00:00 23.5 9 Sur 18 Sudeste 0 -- -- 60
2020-08-25 09:00:00 17.5 14 Este 19 Sudeste 0 -- -- 82
2020-08-25 08:00:00 15.6 8 Sudeste 16 Este 0 -- -- 87
2020-08-25 07:00:00 15.9 9 Sudeste 15 Sudoeste 0 -- -- 85
2020-08-25 06:00:00 17.7 5 Sur 19 Sudoeste 0 -- -- 84
2020-08-25 05:00:00 18.8 10 Sudoeste 21 Sudoeste 0 -- -- 84
2020-08-25 04:00:00 19.3 12 Sudoeste 21 Sudoeste 0 -- -- 82
2020-08-25 03:00:00 19.4 10 Sur 22 Sudoeste 0 -- -- 82
2020-08-25 02:00:00 19.7 10 Sudoeste 17 Sudoeste 0 -- -- 76
2020-08-25 01:00:00 20.4 10 Sudoeste 17 Sur 0 -- -- 78
2020-08-25 00:00:00 19.6 4 Sur 9 Noroeste 0 -- -- 65
2020-08-24 23:00:00 20.8 0 Calma 8 Noroeste 0 -- -- 57
2020-08-24 22:00:00 23.1 4 Norte 21 Noroeste 0 -- -- 49
2020-08-24 21:00:00 25 12 Noroeste 27 Noroeste 0 -- -- 44
2020-08-24 20:00:00 28.5 10 Noroeste 24 Noroeste 0 -- -- 36
2020-08-24 19:00:00 28.8 10 Noroeste 17 Noroeste 0 -- -- 39
2020-08-24 18:00:00 28.2 5 Sudeste 21 Norte 0 -- -- 41
2020-08-24 17:00:00 27.9 8 Norte 35 Noroeste 0 -- -- 41
2020-08-24 16:00:00 28.2 8 Nordeste 25 Norte 0 -- -- 42
2020-08-24 15:00:00 27.4 15 Noroeste 30 Este 0 -- -- 45
2020-08-24 14:00:00 27.8 6 Nordeste 20 Este 0 -- -- 49
2020-08-24 13:00:00 26.6 10 Nordeste 25 Nordeste 0 -- -- 50
2020-08-24 12:00:00 24.1 10 Norte 18 Norte 0 -- -- 48
2020-08-24 11:00:00 21.7 4 Este 10 Norte 0 -- -- 50
2020-08-24 10:00:00 18.9 4 Norte 12 Norte 0 -- -- 55
2020-08-24 09:00:00 17.7 7 Norte 11 Norte 0 -- -- 64
2020-08-24 08:00:00 17.1 0 Calma 6 Norte 0 -- -- 69
2020-08-24 07:00:00 16.7 0 Calma 4 Oeste 0 -- -- 72
2020-08-24 06:00:00 16.4 0 Calma 5 Norte 0 -- -- 73
2020-08-24 05:00:00 15.7 2 Nordeste 6 Norte 0 -- -- 76
2020-08-24 04:00:00 16.4 3 Norte 7 Norte 0 -- -- 74
2020-08-24 03:00:00 17.2 0 Calma 7 Norte 0 -- -- 73
2020-08-24 02:00:00 19 4 Norte 9 Norte 0 -- -- 71
2020-08-24 01:00:00 19.2 3 Norte 8 Noroeste 0 -- -- 84
2020-08-24 00:00:00 19 3 Noroeste 8 Norte 0 -- -- 84
2020-08-23 23:00:00 20 6 Norte 9 Norte 0 -- -- 82
2020-08-23 22:00:00 21 6 Norte 14 Norte 0 -- -- 77
2020-08-23 21:00:00 22.8 4 Nordeste 27 Sudeste 0 -- -- 69
2020-08-23 20:00:00 25.5 14 Nordeste 28 Este 0 -- -- 56
2020-08-23 19:00:00 28.5 7 Norte 17 Norte 0 -- -- 37
2020-08-23 18:00:00 27.9 9 Norte 29 Noroeste 0 -- -- 39
2020-08-23 17:00:00 28.5 5 Nordeste 28 Norte 0 -- -- 41
2020-08-23 16:00:00 27.9 15 Noroeste 34 Noroeste 0 -- -- 44
2020-08-23 15:00:00 27.9 11 Norte 24 Norte 0 -- -- 46
2020-08-23 14:00:00 26.3 11 Norte 26 Norte 0 -- -- 50
2020-08-23 13:00:00 26.2 10 Norte 20 Norte 0 -- -- 48
2020-08-23 12:00:00 23.5 10 Norte 18 Norte 0 -- -- 55
2020-08-23 11:00:00 21.3 8 Norte 14 Norte 0 -- -- 58
2020-08-23 10:00:00 19.9 5 Nordeste 9 Norte 0 -- -- 59
2020-08-23 09:00:00 16.5 0 Calma 5 Sudeste 0 -- -- 72
2020-08-23 08:00:00 15.2 0 Calma 5 Nordeste 0 -- -- 74
2020-08-23 07:00:00 14.1 2 Noroeste 6 Oeste 0 -- -- 77
2020-08-23 06:00:00 14.9 3 Noroeste 10 Noroeste 0 -- -- 75
2020-08-23 05:00:00 16.2 3 Oeste 7 Oeste 0 -- -- 71
2020-08-23 04:00:00 17.9 3 Sur 6 Sur 0 -- -- 65
2020-08-23 03:00:00 19.6 4 Sur 10 Norte 0 -- -- 59
2020-08-23 02:00:00 19.5 8 Nordeste 16 Nordeste 0 -- -- 58
2020-08-23 01:00:00 19.9 6 Norte 13 Noroeste 0 -- -- 58
2020-08-23 00:00:00 21.2 10 Norte 23 Noroeste 0 -- -- 60
2020-08-22 23:00:00 22.6 5 Norte 17 Norte 0 -- -- 55
2020-08-22 22:00:00 24.2 9 Oeste 15 Oeste 0 -- -- 51
2020-08-22 21:00:00 26.4 8 Norte 18 Oeste 0 -- -- 45
2020-08-22 20:00:00 28.8 12 Oeste 21 Oeste 0 -- -- 25
2020-08-22 19:00:00 31.4 7 Sudoeste 26 Noroeste 0 -- -- 24
2020-08-22 18:00:00 32.4 9 Sudoeste 29 Oeste 0 -- -- 22
2020-08-22 17:00:00 32 17 Noroeste 31 Noroeste 0 -- -- 23
2020-08-22 16:00:00 31.9 13 Oeste 27 Sudoeste 0 -- -- 25
2020-08-22 15:00:00 31.3 9 Este 36 Noroeste 0 -- -- 31
2020-08-22 14:00:00 29.5 6 Norte 21 Nordeste 0 -- -- 37
2020-08-22 13:00:00 27.2 7 Nordeste 23 Norte 0 -- -- 47
2020-08-22 12:00:00 26 11 Norte 21 Norte 0 -- -- 50
2020-08-22 11:00:00 24.5 5 Nordeste 10 Norte 0 -- -- 53
2020-08-22 10:00:00 21.1 5 Sudeste 13 Este 0 -- -- 58
2020-08-22 09:00:00 16.5 9 Este 17 Este 0 -- -- 66
2020-08-22 08:00:00 13.9 2 Sudoeste 8 Sudeste 0 -- -- 70
2020-08-22 07:00:00 14.2 0 Calma 8 Sudeste 0 -- -- 67
2020-08-22 06:00:00 14.5 0 Calma 6 Este 0 -- -- 65
2020-08-22 05:00:00 15 0 Calma 4 Noroeste 0 -- -- 66
2020-08-22 04:00:00 15.9 0 Calma 6 Noroeste 0 -- -- 58
2020-08-22 03:00:00 16.9 0 Calma 8 Oeste 0 -- -- 52
2020-08-22 02:00:00 17.8 6 Norte 14 Norte 0 -- -- 48
2020-08-22 01:00:00 19.6 4 Sudeste 14 Sur 0 -- -- 42
2020-08-22 00:00:00 20.5 6 Sur 9 Sudeste 0 -- -- 40
2020-08-21 23:00:00 22.1 0 Calma 8 Oeste 0 -- -- 37
2020-08-21 22:00:00 24.3 6 Sudoeste 11 Sudoeste 0 -- -- 33
2020-08-21 21:00:00 26.9 8 Oeste 20 Sudoeste 0 -- -- 29
2020-08-21 20:00:00 29.1 8 Sudoeste 28 Sudeste 0 -- -- 25
2020-08-21 19:00:00 31.3 14 Sur 30 Sudoeste 0 -- -- 20
2020-08-21 18:00:00 32.1 17 Oeste 39 Sur 0 -- -- 19
2020-08-21 17:00:00 33 12 Sur 31 Sudoeste 0 -- -- 20
2020-08-21 16:00:00 33.4 11 Sudoeste 35 Sur 0 -- -- 19
2020-08-21 15:00:00 33.4 13 Sudoeste 43 Sudoeste 0 -- -- 18
2020-08-21 14:00:00 32.6 11 Sudoeste 28 Sudoeste 0 -- -- 18
2020-08-21 13:00:00 31.8 10 Sur 27 Sur 0 -- -- 20
2020-08-21 12:00:00 30.1 14 Sur 30 Sudeste 0 -- -- 20
2020-08-21 11:00:00 27.6 9 Sudeste 18 Sudeste 0 -- -- 30
2020-08-21 10:00:00 21.9 6 Este 19 Sudeste 0 -- -- 49
2020-08-21 09:00:00 17.2 10 Sudeste 18 Sudeste 0 -- -- 61
2020-08-21 08:00:00 14.5 6 Sudeste 14 Sudeste 0 -- -- 68
2020-08-21 07:00:00 14.8 0 Calma 10 Sur 0 -- -- 65
2020-08-21 06:00:00 15.7 5 Sudeste 10 Este 0 -- -- 62
2020-08-21 05:00:00 17.7 4 Sudeste 18 Sudoeste 0 -- -- 56
2020-08-21 04:00:00 19.1 10 Sudoeste 19 Sudoeste 0 -- -- 52
2020-08-21 03:00:00 19.6 11 Sudoeste 20 Sudoeste 0 -- -- 49
2020-08-21 02:00:00 20.4 12 Sudoeste 22 Sudoeste 0 -- -- 44
2020-08-21 01:00:00 21.2 12 Sudoeste 20 Oeste 0 -- -- 40
2020-08-21 00:00:00 21.7 10 Sudoeste 41 Sudoeste 0 -- -- 38